sensor_id;sensor_type;location;lat;lon;timestamp;temperature;humidity
33328;DHT22;19692;52.998;9.116;2023-03-04T00:01:53;5.30;99.90
33328;DHT22;19692;52.998;9.116;2023-03-04T00:04:18;5.30;99.90
33328;DHT22;19692;52.998;9.116;2023-03-04T00:06:44;5.30;99.90
33328;DHT22;19692;52.998;9.116;2023-03-04T00:09:10;5.40;99.90
33328;DHT22;19692;52.998;9.116;2023-03-04T00:11:35;5.40;99.90
33328;DHT22;19692;52.998;9.116;2023-03-04T00:14:01;5.30;99.90
33328;DHT22;19692;52.998;9.116;2023-03-04T00:16:27;5.40;99.90
33328;DHT22;19692;52.998;9.116;2023-03-04T00:18:53;5.30;99.90
33328;DHT22;19692;52.998;9.116;2023-03-04T00:21:19;5.30;99.90
33328;DHT22;19692;52.998;9.116;2023-03-04T00:23:45;5.30;99.90
33328;DHT22;19692;52.998;9.116;2023-03-04T00:26:11;5.30;99.90
33328;DHT22;19692;52.998;9.116;2023-03-04T00:28:37;5.30;99.90
33328;DHT22;19692;52.998;9.116;2023-03-04T00:31:04;5.30;99.90
33328;DHT22;19692;52.998;9.116;2023-03-04T00:33:33;5.30;99.90
33328;DHT22;19692;52.998;9.116;2023-03-04T00:35:59;5.30;99.90
33328;DHT22;19692;52.998;9.116;2023-03-04T00:38:24;5.30;99.90
33328;DHT22;19692;52.998;9.116;2023-03-04T00:40:50;5.40;99.90
33328;DHT22;19692;52.998;9.116;2023-03-04T00:43:16;5.30;99.90
33328;DHT22;19692;52.998;9.116;2023-03-04T00:45:42;5.30;99.90
33328;DHT22;19692;52.998;9.116;2023-03-04T00:48:08;5.30;99.90
33328;DHT22;19692;52.998;9.116;2023-03-04T00:50:34;5.30;99.90
33328;DHT22;19692;52.998;9.116;2023-03-04T00:52:59;5.30;99.90
33328;DHT22;19692;52.998;9.116;2023-03-04T00:55:26;5.40;99.90
33328;DHT22;19692;52.998;9.116;2023-03-04T00:57:51;5.30;99.90
33328;DHT22;19692;52.998;9.116;2023-03-04T01:00:17;5.30;99.90
33328;DHT22;19692;52.998;9.116;2023-03-04T01:02:43;5.30;99.90
33328;DHT22;19692;52.998;9.116;2023-03-04T01:05:09;5.40;99.90
33328;DHT22;19692;52.998;9.116;2023-03-04T01:07:35;5.30;99.90
33328;DHT22;19692;52.998;9.116;2023-03-04T01:10:01;5.30;99.90
33328;DHT22;19692;52.998;9.116;2023-03-04T01:12:26;5.30;99.90
33328;DHT22;19692;52.998;9.116;2023-03-04T01:14:53;5.30;99.90
33328;DHT22;19692;52.998;9.116;2023-03-04T01:17:19;5.30;99.90
33328;DHT22;19692;52.998;9.116;2023-03-04T01:19:44;5.30;99.90
33328;DHT22;19692;52.998;9.116;2023-03-04T01:22:10;5.30;99.90
33328;DHT22;19692;52.998;9.116;2023-03-04T01:24:37;5.30;99.90
33328;DHT22;19692;52.998;9.116;2023-03-04T01:27:03;5.30;99.90
33328;DHT22;19692;52.998;9.116;2023-03-04T01:29:29;5.30;99.90
33328;DHT22;19692;52.998;9.116;2023-03-04T01:31:54;5.30;99.90
33328;DHT22;19692;52.998;9.116;2023-03-04T01:34:20;5.30;99.90
33328;DHT22;19692;52.998;9.116;2023-03-04T01:36:46;5.40;99.90
33328;DHT22;19692;52.998;9.116;2023-03-04T01:39:11;5.30;99.90
33328;DHT22;19692;52.998;9.116;2023-03-04T01:41:37;5.40;99.90
33328;DHT22;19692;52.998;9.116;2023-03-04T01:44:03;5.30;99.90
33328;DHT22;19692;52.998;9.116;2023-03-04T01:46:29;5.20;99.90
33328;DHT22;19692;52.998;9.116;2023-03-04T01:48:55;5.30;99.90
33328;DHT22;19692;52.998;9.116;2023-03-04T01:51:21;5.20;99.90
33328;DHT22;19692;52.998;9.116;2023-03-04T01:53:48;5.30;99.90
33328;DHT22;19692;52.998;9.116;2023-03-04T01:59:18;5.30;99.90
33328;DHT22;19692;52.998;9.116;2023-03-04T02:01:52;5.20;99.90
33328;DHT22;19692;52.998;9.116;2023-03-04T02:04:21;5.20;99.90
33328;DHT22;19692;52.998;9.116;2023-03-04T02:06:48;5.20;99.90
33328;DHT22;19692;52.998;9.116;2023-03-04T02:09:15;5.20;99.90
33328;DHT22;19692;52.998;9.116;2023-03-04T02:11:41;5.20;99.90
33328;DHT22;19692;52.998;9.116;2023-03-04T02:14:08;5.20;99.90
33328;DHT22;19692;52.998;9.116;2023-03-04T02:16:34;5.20;99.90
33328;DHT22;19692;52.998;9.116;2023-03-04T02:18:59;5.20;99.90
33328;DHT22;19692;52.998;9.116;2023-03-04T02:21:29;5.10;99.90
33328;DHT22;19692;52.998;9.116;2023-03-04T02:23:59;5.20;99.90
33328;DHT22;19692;52.998;9.116;2023-03-04T02:26:44;5.10;99.90
33328;DHT22;19692;52.998;9.116;2023-03-04T02:29:12;5.10;99.90
33328;DHT22;19692;52.998;9.116;2023-03-04T02:31:48;5.10;99.90
33328;DHT22;19692;52.998;9.116;2023-03-04T02:34:27;5.10;99.90
33328;DHT22;19692;52.998;9.116;2023-03-04T02:36:54;5.10;99.90
33328;DHT22;19692;52.998;9.116;2023-03-04T02:41:46;5.00;99.90
33328;DHT22;19692;52.998;9.116;2023-03-04T02:44:17;5.00;99.90
33328;DHT22;19692;52.998;9.116;2023-03-04T02:46:44;5.00;99.90
33328;DHT22;19692;52.998;9.116;2023-03-04T02:49:10;5.00;99.90
33328;DHT22;19692;52.998;9.116;2023-03-04T02:51:35;5.00;99.90
33328;DHT22;19692;52.998;9.116;2023-03-04T02:54:01;5.00;99.90
33328;DHT22;19692;52.998;9.116;2023-03-04T02:56:27;5.00;99.90
33328;DHT22;19692;52.998;9.116;2023-03-04T02:58:53;5.00;99.90
33328;DHT22;19692;52.998;9.116;2023-03-04T03:01:18;5.00;99.90
33328;DHT22;19692;52.998;9.116;2023-03-04T03:03:44;5.10;99.90
33328;DHT22;19692;52.998;9.116;2023-03-04T03:06:10;5.10;99.90
33328;DHT22;19692;52.998;9.116;2023-03-04T03:08:35;5.10;99.90
33328;DHT22;19692;52.998;9.116;2023-03-04T03:11:01;5.20;99.90
33328;DHT22;19692;52.998;9.116;2023-03-04T03:13:27;5.20;99.90
33328;DHT22;19692;52.998;9.116;2023-03-04T03:15:53;5.20;99.90
33328;DHT22;19692;52.998;9.116;2023-03-04T03:18:19;5.20;99.90
33328;DHT22;19692;52.998;9.116;2023-03-04T03:20:45;5.20;99.90
33328;DHT22;19692;52.998;9.116;2023-03-04T03:23:11;5.20;99.90
33328;DHT22;19692;52.998;9.116;2023-03-04T03:25:36;5.20;99.90
33328;DHT22;19692;52.998;9.116;2023-03-04T03:28:02;5.20;99.90
33328;DHT22;19692;52.998;9.116;2023-03-04T03:30:28;5.20;99.90
33328;DHT22;19692;52.998;9.116;2023-03-04T03:32:53;5.20;99.90
33328;DHT22;19692;52.998;9.116;2023-03-04T03:35:19;5.20;99.90
33328;DHT22;19692;52.998;9.116;2023-03-04T03:37:45;5.20;99.90
33328;DHT22;19692;52.998;9.116;2023-03-04T03:40:13;5.10;99.90
33328;DHT22;19692;52.998;9.116;2023-03-04T03:42:38;5.10;99.90
33328;DHT22;19692;52.998;9.116;2023-03-04T03:45:04;5.10;99.90
33328;DHT22;19692;52.998;9.116;2023-03-04T03:47:30;5.10;99.90
33328;DHT22;19692;52.998;9.116;2023-03-04T03:49:56;5.10;99.90
33328;DHT22;19692;52.998;9.116;2023-03-04T03:52:22;5.00;99.90
33328;DHT22;19692;52.998;9.116;2023-03-04T03:54:47;5.00;99.90
33328;DHT22;19692;52.998;9.116;2023-03-04T03:57:13;5.00;99.90
33328;DHT22;19692;52.998;9.116;2023-03-04T03:59:39;5.00;99.90
33328;DHT22;19692;52.998;9.116;2023-03-04T04:02:04;4.90;99.90
33328;DHT22;19692;52.998;9.116;2023-03-04T04:04:30;4.90;99.90
33328;DHT22;19692;52.998;9.116;2023-03-04T04:06:56;4.90;99.90
33328;DHT22;19692;52.998;9.116;2023-03-04T04:09:22;5.00;99.90
33328;DHT22;19692;52.998;9.116;2023-03-04T04:11:47;4.90;99.90
33328;DHT22;19692;52.998;9.116;2023-03-04T04:14:13;5.00;99.90
33328;DHT22;19692;52.998;9.116;2023-03-04T04:16:39;5.00;99.90
33328;DHT22;19692;52.998;9.116;2023-03-04T04:19:05;4.90;99.90
33328;DHT22;19692;52.998;9.116;2023-03-04T04:21:30;4.90;99.90
33328;DHT22;19692;52.998;9.116;2023-03-04T04:23:56;4.90;99.90
33328;DHT22;19692;52.998;9.116;2023-03-04T04:26:22;4.90;99.90
33328;DHT22;19692;52.998;9.116;2023-03-04T04:28:47;4.90;99.90
33328;DHT22;19692;52.998;9.116;2023-03-04T04:31:13;4.90;99.90
33328;DHT22;19692;52.998;9.116;2023-03-04T04:33:39;4.90;99.90
33328;DHT22;19692;52.998;9.116;2023-03-04T04:36:05;4.90;99.90
33328;DHT22;19692;52.998;9.116;2023-03-04T04:38:31;4.90;99.90
33328;DHT22;19692;52.998;9.116;2023-03-04T04:40:57;4.80;99.90
33328;DHT22;19692;52.998;9.116;2023-03-04T04:43:23;4.80;99.90
33328;DHT22;19692;52.998;9.116;2023-03-04T04:45:49;4.70;99.90
33328;DHT22;19692;52.998;9.116;2023-03-04T04:48:15;4.70;99.90
33328;DHT22;19692;52.998;9.116;2023-03-04T04:50:40;4.70;99.90
33328;DHT22;19692;52.998;9.116;2023-03-04T04:53:06;4.70;99.90
33328;DHT22;19692;52.998;9.116;2023-03-04T04:55:32;4.70;99.90
33328;DHT22;19692;52.998;9.116;2023-03-04T04:57:58;4.70;99.90
33328;DHT22;19692;52.998;9.116;2023-03-04T05:00:24;4.70;99.90
33328;DHT22;19692;52.998;9.116;2023-03-04T05:02:49;4.70;99.90
33328;DHT22;19692;52.998;9.116;2023-03-04T05:05:15;4.60;99.90
33328;DHT22;19692;52.998;9.116;2023-03-04T05:07:41;4.60;99.90
33328;DHT22;19692;52.998;9.116;2023-03-04T05:10:07;4.60;99.90
33328;DHT22;19692;52.998;9.116;2023-03-04T05:12:33;4.60;99.90
33328;DHT22;19692;52.998;9.116;2023-03-04T05:14:59;4.60;99.90
33328;DHT22;19692;52.998;9.116;2023-03-04T05:17:25;4.60;99.90
33328;DHT22;19692;52.998;9.116;2023-03-04T05:19:50;4.60;99.90
33328;DHT22;19692;52.998;9.116;2023-03-04T05:22:16;4.60;99.90
33328;DHT22;19692;52.998;9.116;2023-03-04T05:24:42;4.60;99.90
33328;DHT22;19692;52.998;9.116;2023-03-04T05:27:07;4.60;99.90
33328;DHT22;19692;52.998;9.116;2023-03-04T05:29:33;4.50;99.90
33328;DHT22;19692;52.998;9.116;2023-03-04T05:31:59;4.50;99.90
33328;DHT22;19692;52.998;9.116;2023-03-04T05:34:24;4.50;99.90
33328;DHT22;19692;52.998;9.116;2023-03-04T05:36:50;4.60;99.90
33328;DHT22;19692;52.998;9.116;2023-03-04T05:39:16;4.50;99.90
33328;DHT22;19692;52.998;9.116;2023-03-04T05:41:41;4.60;99.90
33328;DHT22;19692;52.998;9.116;2023-03-04T05:44:07;4.60;99.90
33328;DHT22;19692;52.998;9.116;2023-03-04T05:46:33;4.60;99.90
33328;DHT22;19692;52.998;9.116;2023-03-04T05:48:58;4.60;99.90
33328;DHT22;19692;52.998;9.116;2023-03-04T05:51:24;4.60;99.90
33328;DHT22;19692;52.998;9.116;2023-03-04T05:53:50;4.60;99.90
33328;DHT22;19692;52.998;9.116;2023-03-04T05:56:16;4.60;99.90
33328;DHT22;19692;52.998;9.116;2023-03-04T05:58:43;4.50;99.90
33328;DHT22;19692;52.998;9.116;2023-03-04T06:01:09;4.50;99.90
33328;DHT22;19692;52.998;9.116;2023-03-04T06:03:35;4.50;99.90
33328;DHT22;19692;52.998;9.116;2023-03-04T06:06:00;4.50;99.90
33328;DHT22;19692;52.998;9.116;2023-03-04T06:08:26;4.50;99.90
33328;DHT22;19692;52.998;9.116;2023-03-04T06:10:52;4.50;99.90
33328;DHT22;19692;52.998;9.116;2023-03-04T06:13:19;4.60;99.90
33328;DHT22;19692;52.998;9.116;2023-03-04T06:15:45;4.60;99.90
33328;DHT22;19692;52.998;9.116;2023-03-04T06:18:10;4.60;99.90
33328;DHT22;19692;52.998;9.116;2023-03-04T06:20:36;4.60;99.90
33328;DHT22;19692;52.998;9.116;2023-03-04T06:23:02;4.60;99.90
33328;DHT22;19692;52.998;9.116;2023-03-04T06:25:28;4.60;99.90
33328;DHT22;19692;52.998;9.116;2023-03-04T06:27:54;4.60;99.90
33328;DHT22;19692;52.998;9.116;2023-03-04T06:30:20;4.50;99.90
33328;DHT22;19692;52.998;9.116;2023-03-04T06:32:45;4.50;99.90
33328;DHT22;19692;52.998;9.116;2023-03-04T06:35:12;4.60;99.90
33328;DHT22;19692;52.998;9.116;2023-03-04T06:37:39;4.60;99.90
33328;DHT22;19692;52.998;9.116;2023-03-04T06:40:05;4.60;99.90
33328;DHT22;19692;52.998;9.116;2023-03-04T06:42:32;4.60;99.90
33328;DHT22;19692;52.998;9.116;2023-03-04T06:44:58;4.60;99.90
33328;DHT22;19692;52.998;9.116;2023-03-04T06:47:24;4.60;99.90
33328;DHT22;19692;52.998;9.116;2023-03-04T06:49:49;4.60;99.90
33328;DHT22;19692;52.998;9.116;2023-03-04T06:52:15;4.70;99.90
33328;DHT22;19692;52.998;9.116;2023-03-04T06:54:41;4.70;99.90
33328;DHT22;19692;52.998;9.116;2023-03-04T06:57:07;4.70;99.90
33328;DHT22;19692;52.998;9.116;2023-03-04T06:59:32;4.70;99.90
33328;DHT22;19692;52.998;9.116;2023-03-04T07:01:58;4.70;99.90
33328;DHT22;19692;52.998;9.116;2023-03-04T07:04:24;4.70;99.90
33328;DHT22;19692;52.998;9.116;2023-03-04T07:06:50;4.70;99.90
33328;DHT22;19692;52.998;9.116;2023-03-04T07:09:16;4.70;99.90
33328;DHT22;19692;52.998;9.116;2023-03-04T07:11:42;4.70;99.90
33328;DHT22;19692;52.998;9.116;2023-03-04T07:14:07;4.80;99.90
33328;DHT22;19692;52.998;9.116;2023-03-04T07:16:33;4.80;99.90
33328;DHT22;19692;52.998;9.116;2023-03-04T07:18:59;4.80;99.90
33328;DHT22;19692;52.998;9.116;2023-03-04T07:21:25;4.80;99.90
33328;DHT22;19692;52.998;9.116;2023-03-04T07:23:50;4.80;99.90
33328;DHT22;19692;52.998;9.116;2023-03-04T07:26:16;4.90;99.90
33328;DHT22;19692;52.998;9.116;2023-03-04T07:28:42;4.90;99.90
33328;DHT22;19692;52.998;9.116;2023-03-04T07:33:38;5.00;99.90
33328;DHT22;19692;52.998;9.116;2023-03-04T07:36:04;5.00;99.90
33328;DHT22;19692;52.998;9.116;2023-03-04T07:38:29;4.90;99.90
33328;DHT22;19692;52.998;9.116;2023-03-04T07:40:56;5.00;99.90
33328;DHT22;19692;52.998;9.116;2023-03-04T07:43:22;5.00;99.90
33328;DHT22;19692;52.998;9.116;2023-03-04T07:45:48;5.00;99.90
33328;DHT22;19692;52.998;9.116;2023-03-04T07:48:13;5.10;99.90
33328;DHT22;19692;52.998;9.116;2023-03-04T07:50:39;5.10;99.90
33328;DHT22;19692;52.998;9.116;2023-03-04T07:53:05;5.10;99.90
33328;DHT22;19692;52.998;9.116;2023-03-04T07:55:30;5.00;99.90
33328;DHT22;19692;52.998;9.116;2023-03-04T07:57:56;5.10;99.90
33328;DHT22;19692;52.998;9.116;2023-03-04T08:00:22;5.10;99.90
33328;DHT22;19692;52.998;9.116;2023-03-04T08:02:48;5.20;99.90
33328;DHT22;19692;52.998;9.116;2023-03-04T08:05:13;5.20;99.90
33328;DHT22;19692;52.998;9.116;2023-03-04T08:07:39;5.30;99.90
33328;DHT22;19692;52.998;9.116;2023-03-04T08:10:05;5.30;99.90
33328;DHT22;19692;52.998;9.116;2023-03-04T08:12:32;5.30;99.90
33328;DHT22;19692;52.998;9.116;2023-03-04T08:14:58;5.40;99.90
33328;DHT22;19692;52.998;9.116;2023-03-04T08:17:24;5.40;99.90
33328;DHT22;19692;52.998;9.116;2023-03-04T08:19:50;5.40;99.90
33328;DHT22;19692;52.998;9.116;2023-03-04T08:22:15;5.40;99.90
33328;DHT22;19692;52.998;9.116;2023-03-04T08:24:41;5.50;99.90
33328;DHT22;19692;52.998;9.116;2023-03-04T08:27:07;5.40;99.90
33328;DHT22;19692;52.998;9.116;2023-03-04T08:29:32;5.40;99.90
33328;DHT22;19692;52.998;9.116;2023-03-04T08:31:58;5.50;99.90
33328;DHT22;19692;52.998;9.116;2023-03-04T08:34:24;5.50;99.90
33328;DHT22;19692;52.998;9.116;2023-03-04T08:36:51;5.50;99.90
33328;DHT22;19692;52.998;9.116;2023-03-04T08:39:17;5.40;99.90
33328;DHT22;19692;52.998;9.116;2023-03-04T08:41:43;5.40;99.90
33328;DHT22;19692;52.998;9.116;2023-03-04T08:44:09;5.40;99.90
33328;DHT22;19692;52.998;9.116;2023-03-04T08:46:39;5.40;99.90
33328;DHT22;19692;52.998;9.116;2023-03-04T08:49:06;5.40;99.90
33328;DHT22;19692;52.998;9.116;2023-03-04T08:51:32;5.30;99.90
33328;DHT22;19692;52.998;9.116;2023-03-04T08:54:00;5.30;99.90
33328;DHT22;19692;52.998;9.116;2023-03-04T08:56:26;5.30;99.90
33328;DHT22;19692;52.998;9.116;2023-03-04T08:58:52;5.20;99.90
33328;DHT22;19692;52.998;9.116;2023-03-04T09:01:18;5.10;99.90
33328;DHT22;19692;52.998;9.116;2023-03-04T09:03:43;5.10;99.90
33328;DHT22;19692;52.998;9.116;2023-03-04T09:06:11;5.20;99.90
33328;DHT22;19692;52.998;9.116;2023-03-04T09:08:38;5.10;99.90
33328;DHT22;19692;52.998;9.116;2023-03-04T09:11:04;5.10;99.90
33328;DHT22;19692;52.998;9.116;2023-03-04T09:13:30;5.20;99.90
33328;DHT22;19692;52.998;9.116;2023-03-04T09:15:56;5.20;99.90
33328;DHT22;19692;52.998;9.116;2023-03-04T09:18:22;5.20;99.90
33328;DHT22;19692;52.998;9.116;2023-03-04T09:20:48;5.20;99.90
33328;DHT22;19692;52.998;9.116;2023-03-04T09:23:14;5.20;99.90
33328;DHT22;19692;52.998;9.116;2023-03-04T09:25:40;5.20;99.90
33328;DHT22;19692;52.998;9.116;2023-03-04T09:28:07;5.20;99.90
33328;DHT22;19692;52.998;9.116;2023-03-04T09:30:33;5.20;99.90
33328;DHT22;19692;52.998;9.116;2023-03-04T09:32:59;5.20;99.90
33328;DHT22;19692;52.998;9.116;2023-03-04T09:35:25;5.30;99.90
33328;DHT22;19692;52.998;9.116;2023-03-04T09:37:52;5.30;99.90
33328;DHT22;19692;52.998;9.116;2023-03-04T09:40:19;5.30;99.90
33328;DHT22;19692;52.998;9.116;2023-03-04T09:42:59;5.30;99.90
33328;DHT22;19692;52.998;9.116;2023-03-04T09:45:37;5.50;99.90
33328;DHT22;19692;52.998;9.116;2023-03-04T09:48:06;5.70;99.90
33328;DHT22;19692;52.998;9.116;2023-03-04T09:50:35;5.80;99.90
33328;DHT22;19692;52.998;9.116;2023-03-04T09:55:44;5.60;99.90
33328;DHT22;19692;52.998;9.116;2023-03-04T10:00:56;5.30;99.90
33328;DHT22;19692;52.998;9.116;2023-03-04T10:03:45;5.30;99.90
33328;DHT22;19692;52.998;9.116;2023-03-04T10:06:20;5.20;99.90
33328;DHT22;19692;52.998;9.116;2023-03-04T10:14:03;5.50;99.90
33328;DHT22;19692;52.998;9.116;2023-03-04T10:20:04;5.70;99.90
33328;DHT22;19692;52.998;9.116;2023-03-04T10:22:32;6.00;99.90
33328;DHT22;19692;52.998;9.116;2023-03-04T10:25:06;6.00;99.90
33328;DHT22;19692;52.998;9.116;2023-03-04T10:27:41;6.20;99.90
33328;DHT22;19692;52.998;9.116;2023-03-04T10:30:11;6.50;99.90
33328;DHT22;19692;52.998;9.116;2023-03-04T10:32:48;6.50;99.90
33328;DHT22;19692;52.998;9.116;2023-03-04T10:35:13;6.50;99.90
33328;DHT22;19692;52.998;9.116;2023-03-04T10:37:49;6.50;99.90
33328;DHT22;19692;52.998;9.116;2023-03-04T10:40:21;6.20;99.90
33328;DHT22;19692;52.998;9.116;2023-03-04T10:42:49;6.20;99.90
33328;DHT22;19692;52.998;9.116;2023-03-04T10:45:19;6.00;99.90
33328;DHT22;19692;52.998;9.116;2023-03-04T10:47:53;5.90;99.90
33328;DHT22;19692;52.998;9.116;2023-03-04T10:50:24;5.80;99.90
33328;DHT22;19692;52.998;9.116;2023-03-04T10:52:51;5.70;99.90
33328;DHT22;19692;52.998;9.116;2023-03-04T10:55:21;5.50;99.90
33328;DHT22;19692;52.998;9.116;2023-03-04T10:57:50;5.50;99.90
33328;DHT22;19692;52.998;9.116;2023-03-04T11:02:43;5.40;99.90
33328;DHT22;19692;52.998;9.116;2023-03-04T11:05:17;5.50;99.90
33328;DHT22;19692;52.998;9.116;2023-03-04T11:10:19;5.90;99.90
33328;DHT22;19692;52.998;9.116;2023-03-04T11:12:47;6.00;99.90
33328;DHT22;19692;52.998;9.116;2023-03-04T11:15:20;6.10;99.90
33328;DHT22;19692;52.998;9.116;2023-03-04T11:20:54;6.20;99.90
33328;DHT22;19692;52.998;9.116;2023-03-04T11:26:03;6.00;99.90
33328;DHT22;19692;52.998;9.116;2023-03-04T11:28:42;5.90;99.90
33328;DHT22;19692;52.998;9.116;2023-03-04T11:31:14;6.10;99.90
33328;DHT22;19692;52.998;9.116;2023-03-04T11:33:52;6.20;99.90
33328;DHT22;19692;52.998;9.116;2023-03-04T11:39:00;6.10;99.90
33328;DHT22;19692;52.998;9.116;2023-03-04T11:41:35;6.20;99.90
33328;DHT22;19692;52.998;9.116;2023-03-04T11:44:06;6.40;99.90
33328;DHT22;19692;52.998;9.116;2023-03-04T11:49:31;6.90;99.90
33328;DHT22;19692;52.998;9.116;2023-03-04T12:00:10;6.70;99.90
33328;DHT22;19692;52.998;9.116;2023-03-04T12:02:43;6.60;99.90
33328;DHT22;19692;52.998;9.116;2023-03-04T12:05:16;6.60;99.90
33328;DHT22;19692;52.998;9.116;2023-03-04T12:08:00;6.40;99.90
33328;DHT22;19692;52.998;9.116;2023-03-04T12:13:40;6.40;99.90
33328;DHT22;19692;52.998;9.116;2023-03-04T12:17:27;6.50;99.90
33328;DHT22;19692;52.998;9.116;2023-03-04T12:22:23;6.40;99.90
33328;DHT22;19692;52.998;9.116;2023-03-04T12:33:24;5.70;99.90
33328;DHT22;19692;52.998;9.116;2023-03-04T12:36:12;5.50;99.90
33328;DHT22;19692;52.998;9.116;2023-03-04T12:38:53;5.30;99.90
33328;DHT22;19692;52.998;9.116;2023-03-04T12:41:29;4.90;99.90
33328;DHT22;19692;52.998;9.116;2023-03-04T12:44:20;4.70;99.90
33328;DHT22;19692;52.998;9.116;2023-03-04T12:50:15;4.90;99.90
33328;DHT22;19692;52.998;9.116;2023-03-04T12:52:35;5.20;99.90
33328;DHT22;19692;52.998;9.116;2023-03-04T12:55:08;5.30;99.90
33328;DHT22;19692;52.998;9.116;2023-03-04T12:57:36;5.40;99.90
33328;DHT22;19692;52.998;9.116;2023-03-04T13:10:43;6.00;99.90
33328;DHT22;19692;52.998;9.116;2023-03-04T13:16:03;6.00;99.90
33328;DHT22;19692;52.998;9.116;2023-03-04T13:21:04;5.70;99.90
33328;DHT22;19692;52.998;9.116;2023-03-04T13:23:30;5.60;99.90
33328;DHT22;19692;52.998;9.116;2023-03-04T13:28:28;5.60;99.90
33328;DHT22;19692;52.998;9.116;2023-03-04T13:38:31;5.40;99.90
33328;DHT22;19692;52.998;9.116;2023-03-04T14:01:48;6.00;99.90
33328;DHT22;19692;52.998;9.116;2023-03-04T14:04:27;6.00;99.90
33328;DHT22;19692;52.998;9.116;2023-03-04T14:06:57;5.90;99.90
33328;DHT22;19692;52.998;9.116;2023-03-04T14:09:25;5.80;99.90
33328;DHT22;19692;52.998;9.116;2023-03-04T14:11:55;5.70;99.90
33328;DHT22;19692;52.998;9.116;2023-03-04T14:14:26;5.70;99.90
33328;DHT22;19692;52.998;9.116;2023-03-04T14:16:55;5.60;99.90
33328;DHT22;19692;52.998;9.116;2023-03-04T14:22:00;5.20;99.90
33328;DHT22;19692;52.998;9.116;2023-03-04T14:24:26;5.10;99.90
33328;DHT22;19692;52.998;9.116;2023-03-04T14:27:11;5.20;99.90
33328;DHT22;19692;52.998;9.116;2023-03-04T14:29:37;5.20;99.90
33328;DHT22;19692;52.998;9.116;2023-03-04T14:32:03;5.40;99.90
33328;DHT22;19692;52.998;9.116;2023-03-04T14:34:34;5.70;99.90
33328;DHT22;19692;52.998;9.116;2023-03-04T14:37:02;6.30;99.90
33328;DHT22;19692;52.998;9.116;2023-03-04T14:39:30;6.60;99.90
33328;DHT22;19692;52.998;9.116;2023-03-04T14:41:58;6.90;99.90
33328;DHT22;19692;52.998;9.116;2023-03-04T14:49:41;5.90;99.90
33328;DHT22;19692;52.998;9.116;2023-03-04T14:52:25;5.50;99.90
33328;DHT22;19692;52.998;9.116;2023-03-04T14:57:53;4.90;99.90
33328;DHT22;19692;52.998;9.116;2023-03-04T15:00:31;4.70;99.90
33328;DHT22;19692;52.998;9.116;2023-03-04T15:05:55;4.20;99.90
33328;DHT22;19692;52.998;9.116;2023-03-04T15:08:33;3.90;99.90
33328;DHT22;19692;52.998;9.116;2023-03-04T15:11:01;3.90;99.90
33328;DHT22;19692;52.998;9.116;2023-03-04T15:13:35;4.00;99.90
33328;DHT22;19692;52.998;9.116;2023-03-04T15:16:08;4.00;99.90
33328;DHT22;19692;52.998;9.116;2023-03-04T15:18:35;4.10;99.90
33328;DHT22;19692;52.998;9.116;2023-03-04T15:21:05;4.20;99.90
33328;DHT22;19692;52.998;9.116;2023-03-04T15:23:51;4.20;99.90
33328;DHT22;19692;52.998;9.116;2023-03-04T15:26:16;4.30;99.90
33328;DHT22;19692;52.998;9.116;2023-03-04T15:28:42;4.30;99.90
33328;DHT22;19692;52.998;9.116;2023-03-04T15:31:41;4.40;99.90
33328;DHT22;19692;52.998;9.116;2023-03-04T15:34:00;4.40;99.90
33328;DHT22;19692;52.998;9.116;2023-03-04T15:36:25;4.50;99.90
33328;DHT22;19692;52.998;9.116;2023-03-04T15:38:51;4.40;99.90
33328;DHT22;19692;52.998;9.116;2023-03-04T15:41:24;4.40;99.90
33328;DHT22;19692;52.998;9.116;2023-03-04T15:43:51;4.40;99.90
33328;DHT22;19692;52.998;9.116;2023-03-04T15:46:17;4.50;99.90
33328;DHT22;19692;52.998;9.116;2023-03-04T15:48:43;4.50;99.90
33328;DHT22;19692;52.998;9.116;2023-03-04T15:51:13;4.50;99.90
33328;DHT22;19692;52.998;9.116;2023-03-04T15:53:45;4.50;99.90
33328;DHT22;19692;52.998;9.116;2023-03-04T15:56:19;4.40;99.90
33328;DHT22;19692;52.998;9.116;2023-03-04T15:58:47;4.40;99.90
33328;DHT22;19692;52.998;9.116;2023-03-04T16:01:22;4.20;99.90
33328;DHT22;19692;52.998;9.116;2023-03-04T16:03:48;4.00;99.90
33328;DHT22;19692;52.998;9.116;2023-03-04T16:06:14;3.70;99.90
33328;DHT22;19692;52.998;9.116;2023-03-04T16:08:43;3.60;99.90
33328;DHT22;19692;52.998;9.116;2023-03-04T16:11:16;3.60;99.90
33328;DHT22;19692;52.998;9.116;2023-03-04T16:13:49;3.50;99.90
33328;DHT22;19692;52.998;9.116;2023-03-04T16:16:14;3.50;99.90
33328;DHT22;19692;52.998;9.116;2023-03-04T16:18:41;3.50;99.90
33328;DHT22;19692;52.998;9.116;2023-03-04T16:21:07;3.60;99.90
33328;DHT22;19692;52.998;9.116;2023-03-04T16:23:40;3.60;99.90
33328;DHT22;19692;52.998;9.116;2023-03-04T16:26:13;3.70;99.90
33328;DHT22;19692;52.998;9.116;2023-03-04T16:28:40;3.60;99.90
33328;DHT22;19692;52.998;9.116;2023-03-04T16:31:06;3.60;99.90
33328;DHT22;19692;52.998;9.116;2023-03-04T16:33:34;3.60;99.90
33328;DHT22;19692;52.998;9.116;2023-03-04T16:36:00;3.70;99.90
33328;DHT22;19692;52.998;9.116;2023-03-04T16:38:29;3.70;99.90
33328;DHT22;19692;52.998;9.116;2023-03-04T16:40:56;3.60;99.90
33328;DHT22;19692;52.998;9.116;2023-03-04T16:43:22;3.50;99.90
33328;DHT22;19692;52.998;9.116;2023-03-04T16:45:48;3.50;99.90
33328;DHT22;19692;52.998;9.116;2023-03-04T16:48:15;3.50;99.90
33328;DHT22;19692;52.998;9.116;2023-03-04T16:50:41;3.50;99.90
33328;DHT22;19692;52.998;9.116;2023-03-04T16:53:20;3.50;99.90
33328;DHT22;19692;52.998;9.116;2023-03-04T16:55:49;3.50;99.90
33328;DHT22;19692;52.998;9.116;2023-03-04T16:58:15;3.40;99.90
33328;DHT22;19692;52.998;9.116;2023-03-04T17:00:41;3.30;99.90
33328;DHT22;19692;52.998;9.116;2023-03-04T17:03:08;3.30;99.90
33328;DHT22;19692;52.998;9.116;2023-03-04T17:05:35;3.30;99.90
33328;DHT22;19692;52.998;9.116;2023-03-04T17:08:01;3.30;99.90
33328;DHT22;19692;52.998;9.116;2023-03-04T17:10:27;3.40;99.90
33328;DHT22;19692;52.998;9.116;2023-03-04T17:12:53;3.40;99.90
33328;DHT22;19692;52.998;9.116;2023-03-04T17:15:18;3.40;99.90
33328;DHT22;19692;52.998;9.116;2023-03-04T17:17:44;3.40;99.90
33328;DHT22;19692;52.998;9.116;2023-03-04T17:20:12;3.40;99.90
33328;DHT22;19692;52.998;9.116;2023-03-04T17:22:39;3.40;99.90
33328;DHT22;19692;52.998;9.116;2023-03-04T17:25:05;3.50;99.90
33328;DHT22;19692;52.998;9.116;2023-03-04T17:27:31;3.40;99.90
33328;DHT22;19692;52.998;9.116;2023-03-04T17:29:56;3.50;99.90
33328;DHT22;19692;52.998;9.116;2023-03-04T17:32:22;3.40;99.90
33328;DHT22;19692;52.998;9.116;2023-03-04T17:34:48;3.40;99.90
33328;DHT22;19692;52.998;9.116;2023-03-04T17:37:14;3.30;99.90
33328;DHT22;19692;52.998;9.116;2023-03-04T17:39:39;3.30;99.90
33328;DHT22;19692;52.998;9.116;2023-03-04T17:42:05;3.30;99.90
33328;DHT22;19692;52.998;9.116;2023-03-04T17:44:31;3.30;99.90
33328;DHT22;19692;52.998;9.116;2023-03-04T17:46:56;3.40;99.90
33328;DHT22;19692;52.998;9.116;2023-03-04T17:49:23;3.30;99.90
33328;DHT22;19692;52.998;9.116;2023-03-04T17:51:49;3.30;99.90
33328;DHT22;19692;52.998;9.116;2023-03-04T17:54:15;3.30;99.90